sensor_id;sensor_type;location;lat;lon;timestamp;P1;durP1;ratioP1;P2;durP2;ratioP2
54795;SDS011;40693;43.884;20.340;2023-02-28T00:00:23;54.03;;;30.77;;
54795;SDS011;40693;43.884;20.340;2023-02-28T00:02:49;54.10;;;31.33;;
54795;SDS011;40693;43.884;20.340;2023-02-28T00:05:17;53.70;;;31.23;;
54795;SDS011;40693;43.884;20.340;2023-02-28T00:07:45;53.27;;;31.93;;
54795;SDS011;40693;43.884;20.340;2023-02-28T00:10:12;53.80;;;29.20;;
54795;SDS011;40693;43.884;20.340;2023-02-28T00:15:10;53.40;;;28.13;;
54795;SDS011;40693;43.884;20.340;2023-02-28T00:17:37;40.50;;;24.07;;
54795;SDS011;40693;43.884;20.340;2023-02-28T00:20:03;46.07;;;26.63;;
54795;SDS011;40693;43.884;20.340;2023-02-28T00:22:33;40.97;;;25.20;;
54795;SDS011;40693;43.884;20.340;2023-02-28T00:24:59;51.10;;;27.27;;
54795;SDS011;40693;43.884;20.340;2023-02-28T00:27:25;45.17;;;24.50;;
54795;SDS011;40693;43.884;20.340;2023-02-28T00:29:51;50.47;;;29.37;;
54795;SDS011;40693;43.884;20.340;2023-02-28T00:32:16;54.07;;;29.77;;
54795;SDS011;40693;43.884;20.340;2023-02-28T00:34:43;52.37;;;28.47;;
54795;SDS011;40693;43.884;20.340;2023-02-28T00:37:09;47.10;;;26.80;;
54795;SDS011;40693;43.884;20.340;2023-02-28T00:39:39;53.27;;;34.03;;
54795;SDS011;40693;43.884;20.340;2023-02-28T00:42:06;53.37;;;33.17;;
54795;SDS011;40693;43.884;20.340;2023-02-28T00:44:33;53.03;;;31.27;;
54795;SDS011;40693;43.884;20.340;2023-02-28T00:46:59;49.77;;;28.60;;
54795;SDS011;40693;43.884;20.340;2023-02-28T00:49:26;51.43;;;29.93;;
54795;SDS011;40693;43.884;20.340;2023-02-28T00:51:52;44.40;;;24.67;;
54795;SDS011;40693;43.884;20.340;2023-02-28T00:54:20;48.50;;;27.63;;
54795;SDS011;40693;43.884;20.340;2023-02-28T00:56:46;44.00;;;25.13;;
54795;SDS011;40693;43.884;20.340;2023-02-28T00:59:13;50.03;;;28.57;;
54795;SDS011;40693;43.884;20.340;2023-02-28T01:01:40;58.33;;;30.60;;
54795;SDS011;40693;43.884;20.340;2023-02-28T01:04:06;55.93;;;33.07;;
54795;SDS011;40693;43.884;20.340;2023-02-28T01:06:32;52.93;;;31.77;;
54795;SDS011;40693;43.884;20.340;2023-02-28T01:08:58;48.13;;;28.03;;
54795;SDS011;40693;43.884;20.340;2023-02-28T01:11:25;48.30;;;29.50;;
54795;SDS011;40693;43.884;20.340;2023-02-28T01:13:51;52.23;;;29.37;;
54795;SDS011;40693;43.884;20.340;2023-02-28T01:16:16;45.43;;;27.97;;
54795;SDS011;40693;43.884;20.340;2023-02-28T01:18:42;46.27;;;26.90;;
54795;SDS011;40693;43.884;20.340;2023-02-28T01:21:10;47.27;;;26.37;;
54795;SDS011;40693;43.884;20.340;2023-02-28T01:23:38;46.53;;;25.97;;
54795;SDS011;40693;43.884;20.340;2023-02-28T01:26:06;43.23;;;26.00;;
54795;SDS011;40693;43.884;20.340;2023-02-28T01:28:42;46.20;;;26.30;;
54795;SDS011;40693;43.884;20.340;2023-02-28T01:31:08;48.47;;;25.73;;
54795;SDS011;40693;43.884;20.340;2023-02-28T01:33:34;47.43;;;26.97;;
54795;SDS011;40693;43.884;20.340;2023-02-28T01:36:02;49.17;;;29.80;;
54795;SDS011;40693;43.884;20.340;2023-02-28T01:38:34;48.47;;;26.67;;
54795;SDS011;40693;43.884;20.340;2023-02-28T01:41:00;43.53;;;24.53;;
54795;SDS011;40693;43.884;20.340;2023-02-28T01:46:22;37.40;;;23.37;;
54795;SDS011;40693;43.884;20.340;2023-02-28T01:48:52;43.97;;;24.00;;
54795;SDS011;40693;43.884;20.340;2023-02-28T01:51:29;46.70;;;27.10;;
54795;SDS011;40693;43.884;20.340;2023-02-28T01:54:11;43.73;;;25.10;;
54795;SDS011;40693;43.884;20.340;2023-02-28T01:56:46;56.37;;;26.97;;
54795;SDS011;40693;43.884;20.340;2023-02-28T01:59:22;49.80;;;29.60;;
54795;SDS011;40693;43.884;20.340;2023-02-28T02:02:23;50.50;;;25.77;;
54795;SDS011;40693;43.884;20.340;2023-02-28T02:07:18;50.77;;;27.63;;
54795;SDS011;40693;43.884;20.340;2023-02-28T02:09:45;49.70;;;28.37;;
54795;SDS011;40693;43.884;20.340;2023-02-28T02:32:35;54.93;;;32.10;;
54795;SDS011;40693;43.884;20.340;2023-02-28T02:40:29;57.67;;;32.40;;
54795;SDS011;40693;43.884;20.340;2023-02-28T02:43:02;59.63;;;31.80;;
54795;SDS011;40693;43.884;20.340;2023-02-28T02:45:32;57.73;;;34.70;;
54795;SDS011;40693;43.884;20.340;2023-02-28T02:48:09;56.63;;;34.53;;
54795;SDS011;40693;43.884;20.340;2023-02-28T02:50:42;58.60;;;33.73;;
54795;SDS011;40693;43.884;20.340;2023-02-28T02:53:20;61.63;;;34.03;;
54795;SDS011;40693;43.884;20.340;2023-02-28T02:55:53;55.57;;;32.17;;
54795;SDS011;40693;43.884;20.340;2023-02-28T02:58:24;52.00;;;28.53;;
54795;SDS011;40693;43.884;20.340;2023-02-28T03:00:57;55.43;;;33.00;;
54795;SDS011;40693;43.884;20.340;2023-02-28T03:03:25;49.33;;;30.40;;
54795;SDS011;40693;43.884;20.340;2023-02-28T03:05:59;44.60;;;27.43;;
54795;SDS011;40693;43.884;20.340;2023-02-28T03:08:27;57.83;;;32.57;;
54795;SDS011;40693;43.884;20.340;2023-02-28T03:11:03;54.57;;;29.73;;
54795;SDS011;40693;43.884;20.340;2023-02-28T03:16:28;48.10;;;27.20;;
54795;SDS011;40693;43.884;20.340;2023-02-28T03:30:00;38.90;;;23.53;;
54795;SDS011;40693;43.884;20.340;2023-02-28T03:32:38;43.53;;;26.07;;
54795;SDS011;40693;43.884;20.340;2023-02-28T03:35:20;47.60;;;26.00;;
54795;SDS011;40693;43.884;20.340;2023-02-28T03:38:08;43.33;;;23.50;;
54795;SDS011;40693;43.884;20.340;2023-02-28T03:40:40;46.80;;;24.27;;
54795;SDS011;40693;43.884;20.340;2023-02-28T03:43:12;47.57;;;27.70;;
54795;SDS011;40693;43.884;20.340;2023-02-28T03:45:44;50.93;;;28.67;;
54795;SDS011;40693;43.884;20.340;2023-02-28T03:48:15;50.27;;;27.33;;
54795;SDS011;40693;43.884;20.340;2023-02-28T03:50:49;50.37;;;27.20;;
54795;SDS011;40693;43.884;20.340;2023-02-28T03:53:39;46.60;;;25.30;;
54795;SDS011;40693;43.884;20.340;2023-02-28T03:56:22;48.17;;;25.00;;
54795;SDS011;40693;43.884;20.340;2023-02-28T03:59:05;45.87;;;23.80;;
54795;SDS011;40693;43.884;20.340;2023-02-28T04:01:40;52.22;;;27.05;;
54795;SDS011;40693;43.884;20.340;2023-02-28T04:04:09;52.33;;;28.60;;
54795;SDS011;40693;43.884;20.340;2023-02-28T04:06:36;49.43;;;30.50;;
54795;SDS011;40693;43.884;20.340;2023-02-28T04:09:03;54.23;;;29.10;;
54795;SDS011;40693;43.884;20.340;2023-02-28T04:14:00;54.77;;;30.90;;
54795;SDS011;40693;43.884;20.340;2023-02-28T04:16:29;47.90;;;28.97;;
54795;SDS011;40693;43.884;20.340;2023-02-28T04:18:55;56.70;;;31.17;;
54795;SDS011;40693;43.884;20.340;2023-02-28T04:21:30;50.13;;;27.23;;
54795;SDS011;40693;43.884;20.340;2023-02-28T04:23:58;46.57;;;26.87;;
54795;SDS011;40693;43.884;20.340;2023-02-28T04:26:27;46.33;;;24.87;;
54795;SDS011;40693;43.884;20.340;2023-02-28T04:28:57;42.40;;;23.27;;
54795;SDS011;40693;43.884;20.340;2023-02-28T04:31:24;46.53;;;26.63;;
54795;SDS011;40693;43.884;20.340;2023-02-28T04:33:50;38.20;;;23.30;;
54795;SDS011;40693;43.884;20.340;2023-02-28T04:36:15;45.53;;;25.13;;
54795;SDS011;40693;43.884;20.340;2023-02-28T04:38:43;42.90;;;27.03;;
54795;SDS011;40693;43.884;20.340;2023-02-28T04:41:10;43.27;;;23.40;;
54795;SDS011;40693;43.884;20.340;2023-02-28T04:43:36;42.30;;;24.43;;
54795;SDS011;40693;43.884;20.340;2023-02-28T04:46:02;41.17;;;24.27;;
54795;SDS011;40693;43.884;20.340;2023-02-28T04:48:30;44.83;;;25.67;;
54795;SDS011;40693;43.884;20.340;2023-02-28T04:51:02;42.33;;;24.53;;
54795;SDS011;40693;43.884;20.340;2023-02-28T04:53:32;41.10;;;22.90;;
54795;SDS011;40693;43.884;20.340;2023-02-28T04:55:58;45.97;;;24.10;;
54795;SDS011;40693;43.884;20.340;2023-02-28T04:58:24;40.20;;;24.77;;
54795;SDS011;40693;43.884;20.340;2023-02-28T05:00:51;51.87;;;28.90;;
54795;SDS011;40693;43.884;20.340;2023-02-28T05:03:18;49.93;;;27.47;;
54795;SDS011;40693;43.884;20.340;2023-02-28T05:05:45;49.10;;;26.80;;
54795;SDS011;40693;43.884;20.340;2023-02-28T05:08:12;45.77;;;26.07;;
54795;SDS011;40693;43.884;20.340;2023-02-28T05:10:38;42.00;;;25.27;;
54795;SDS011;40693;43.884;20.340;2023-02-28T05:13:04;52.53;;;29.23;;
54795;SDS011;40693;43.884;20.340;2023-02-28T05:15:30;50.80;;;27.57;;
54795;SDS011;40693;43.884;20.340;2023-02-28T05:17:55;47.47;;;26.63;;
54795;SDS011;40693;43.884;20.340;2023-02-28T05:20:21;48.17;;;27.03;;
54795;SDS011;40693;43.884;20.340;2023-02-28T05:22:47;48.47;;;28.63;;
54795;SDS011;40693;43.884;20.340;2023-02-28T05:25:17;46.57;;;23.30;;
54795;SDS011;40693;43.884;20.340;2023-02-28T05:27:45;49.20;;;26.63;;
54795;SDS011;40693;43.884;20.340;2023-02-28T05:30:11;49.57;;;26.87;;
54795;SDS011;40693;43.884;20.340;2023-02-28T05:32:37;49.80;;;28.17;;
54795;SDS011;40693;43.884;20.340;2023-02-28T05:35:07;51.93;;;28.17;;
54795;SDS011;40693;43.884;20.340;2023-02-28T05:37:34;50.70;;;29.87;;
54795;SDS011;40693;43.884;20.340;2023-02-28T05:39:59;50.67;;;29.13;;
54795;SDS011;40693;43.884;20.340;2023-02-28T05:42:25;49.43;;;24.53;;
54795;SDS011;40693;43.884;20.340;2023-02-28T05:44:51;47.53;;;27.57;;
54795;SDS011;40693;43.884;20.340;2023-02-28T05:47:17;47.83;;;27.07;;
54795;SDS011;40693;43.884;20.340;2023-02-28T05:49:42;50.10;;;28.70;;
54795;SDS011;40693;43.884;20.340;2023-02-28T05:52:08;46.00;;;26.27;;
54795;SDS011;40693;43.884;20.340;2023-02-28T05:54:34;48.87;;;27.43;;
54795;SDS011;40693;43.884;20.340;2023-02-28T05:57:00;59.43;;;30.37;;
54795;SDS011;40693;43.884;20.340;2023-02-28T05:59:25;57.83;;;29.30;;
54795;SDS011;40693;43.884;20.340;2023-02-28T06:01:51;47.67;;;27.50;;
54795;SDS011;40693;43.884;20.340;2023-02-28T06:04:18;57.53;;;31.00;;
54795;SDS011;40693;43.884;20.340;2023-02-28T06:06:46;53.23;;;28.63;;
54795;SDS011;40693;43.884;20.340;2023-02-28T06:09:12;84.97;;;44.27;;
54795;SDS011;40693;43.884;20.340;2023-02-28T06:11:39;123.83;;;64.67;;
54795;SDS011;40693;43.884;20.340;2023-02-28T06:14:05;68.63;;;36.30;;
54795;SDS011;40693;43.884;20.340;2023-02-28T06:16:37;92.43;;;50.63;;
54795;SDS011;40693;43.884;20.340;2023-02-28T06:19:03;68.67;;;40.23;;
54795;SDS011;40693;43.884;20.340;2023-02-28T06:21:29;149.23;;;73.70;;
54795;SDS011;40693;43.884;20.340;2023-02-28T06:23:55;222.47;;;121.73;;
54795;SDS011;40693;43.884;20.340;2023-02-28T06:26:22;118.33;;;65.67;;
54795;SDS011;40693;43.884;20.340;2023-02-28T06:28:48;127.57;;;72.50;;
54795;SDS011;40693;43.884;20.340;2023-02-28T06:31:15;85.53;;;46.43;;
54795;SDS011;40693;43.884;20.340;2023-02-28T06:33:42;120.00;;;72.33;;
54795;SDS011;40693;43.884;20.340;2023-02-28T06:36:09;97.60;;;50.63;;
54795;SDS011;40693;43.884;20.340;2023-02-28T06:38:37;201.87;;;108.27;;
54795;SDS011;40693;43.884;20.340;2023-02-28T06:41:04;114.57;;;62.67;;
54795;SDS011;40693;43.884;20.340;2023-02-28T06:43:32;76.60;;;38.13;;
54795;SDS011;40693;43.884;20.340;2023-02-28T06:46:00;60.77;;;35.73;;
54795;SDS011;40693;43.884;20.340;2023-02-28T06:48:28;64.10;;;39.57;;
54795;SDS011;40693;43.884;20.340;2023-02-28T06:53:33;52.20;;;28.27;;
54795;SDS011;40693;43.884;20.340;2023-02-28T06:56:03;60.03;;;33.27;;
54795;SDS011;40693;43.884;20.340;2023-02-28T06:58:31;56.50;;;29.00;;
54795;SDS011;40693;43.884;20.340;2023-02-28T07:00:57;56.07;;;31.10;;
54795;SDS011;40693;43.884;20.340;2023-02-28T07:03:23;51.93;;;30.53;;
54795;SDS011;40693;43.884;20.340;2023-02-28T07:05:52;53.37;;;28.87;;
54795;SDS011;40693;43.884;20.340;2023-02-28T07:08:17;46.40;;;27.40;;
54795;SDS011;40693;43.884;20.340;2023-02-28T07:13:31;46.63;;;26.53;;
54795;SDS011;40693;43.884;20.340;2023-02-28T07:16:18;41.80;;;25.40;;
54795;SDS011;40693;43.884;20.340;2023-02-28T07:18:52;67.37;;;39.93;;
54795;SDS011;40693;43.884;20.340;2023-02-28T07:21:18;66.50;;;40.20;;
54795;SDS011;40693;43.884;20.340;2023-02-28T07:23:44;63.20;;;41.10;;
54795;SDS011;40693;43.884;20.340;2023-02-28T07:26:11;51.37;;;29.57;;
54795;SDS011;40693;43.884;20.340;2023-02-28T07:28:40;76.40;;;41.90;;
54795;SDS011;40693;43.884;20.340;2023-02-28T07:31:09;98.33;;;61.50;;
54795;SDS011;40693;43.884;20.340;2023-02-28T07:33:36;66.93;;;34.77;;
54795;SDS011;40693;43.884;20.340;2023-02-28T07:36:45;64.47;;;33.77;;
54795;SDS011;40693;43.884;20.340;2023-02-28T07:39:24;58.63;;;34.87;;
54795;SDS011;40693;43.884;20.340;2023-02-28T07:42:14;56.20;;;30.07;;
54795;SDS011;40693;43.884;20.340;2023-02-28T07:44:42;57.30;;;29.17;;
54795;SDS011;40693;43.884;20.340;2023-02-28T07:47:13;64.03;;;34.33;;
54795;SDS011;40693;43.884;20.340;2023-02-28T07:49:39;65.03;;;39.80;;
54795;SDS011;40693;43.884;20.340;2023-02-28T07:52:22;66.13;;;38.57;;
54795;SDS011;40693;43.884;20.340;2023-02-28T07:55:02;63.27;;;34.33;;
54795;SDS011;40693;43.884;20.340;2023-02-28T07:57:39;70.03;;;38.70;;
54795;SDS011;40693;43.884;20.340;2023-02-28T08:00:15;94.83;;;54.00;;
54795;SDS011;40693;43.884;20.340;2023-02-28T08:02:49;85.03;;;46.73;;
54795;SDS011;40693;43.884;20.340;2023-02-28T08:05:21;75.47;;;45.40;;
54795;SDS011;40693;43.884;20.340;2023-02-28T08:07:52;86.77;;;52.30;;
54795;SDS011;40693;43.884;20.340;2023-02-28T08:10:21;65.17;;;42.53;;
54795;SDS011;40693;43.884;20.340;2023-02-28T08:12:52;58.40;;;36.67;;
54795;SDS011;40693;43.884;20.340;2023-02-28T08:15:18;60.20;;;36.10;;
54795;SDS011;40693;43.884;20.340;2023-02-28T08:17:44;63.60;;;35.73;;
54795;SDS011;40693;43.884;20.340;2023-02-28T08:20:09;69.73;;;39.70;;
54795;SDS011;40693;43.884;20.340;2023-02-28T08:22:35;53.10;;;34.53;;
54795;SDS011;40693;43.884;20.340;2023-02-28T08:25:05;57.90;;;33.77;;
54795;SDS011;40693;43.884;20.340;2023-02-28T08:27:32;56.73;;;33.87;;
54795;SDS011;40693;43.884;20.340;2023-02-28T08:29:58;60.60;;;37.47;;
54795;SDS011;40693;43.884;20.340;2023-02-28T08:32:40;59.70;;;34.37;;
54795;SDS011;40693;43.884;20.340;2023-02-28T08:35:06;63.07;;;36.70;;
54795;SDS011;40693;43.884;20.340;2023-02-28T08:37:34;58.77;;;32.93;;
54795;SDS011;40693;43.884;20.340;2023-02-28T08:40:00;49.73;;;28.53;;
54795;SDS011;40693;43.884;20.340;2023-02-28T08:42:29;48.37;;;25.50;;
54795;SDS011;40693;43.884;20.340;2023-02-28T08:44:54;62.23;;;34.20;;
54795;SDS011;40693;43.884;20.340;2023-02-28T08:47:26;54.27;;;32.13;;
54795;SDS011;40693;43.884;20.340;2023-02-28T08:49:52;56.63;;;33.97;;
54795;SDS011;40693;43.884;20.340;2023-02-28T08:52:18;57.60;;;30.67;;
54795;SDS011;40693;43.884;20.340;2023-02-28T08:54:44;61.03;;;31.57;;
54795;SDS011;40693;43.884;20.340;2023-02-28T08:57:10;63.97;;;32.03;;
54795;SDS011;40693;43.884;20.340;2023-02-28T08:59:36;69.03;;;35.47;;
54795;SDS011;40693;43.884;20.340;2023-02-28T09:02:04;77.50;;;43.07;;
54795;SDS011;40693;43.884;20.340;2023-02-28T09:04:30;81.70;;;43.93;;
54795;SDS011;40693;43.884;20.340;2023-02-28T09:06:56;75.10;;;38.93;;
54795;SDS011;40693;43.884;20.340;2023-02-28T09:09:22;77.90;;;45.97;;
54795;SDS011;40693;43.884;20.340;2023-02-28T09:11:50;68.77;;;41.37;;
54795;SDS011;40693;43.884;20.340;2023-02-28T09:14:16;67.87;;;41.70;;
54795;SDS011;40693;43.884;20.340;2023-02-28T09:16:42;62.93;;;35.47;;
54795;SDS011;40693;43.884;20.340;2023-02-28T09:19:10;54.90;;;32.07;;
54795;SDS011;40693;43.884;20.340;2023-02-28T09:21:37;60.13;;;33.33;;
54795;SDS011;40693;43.884;20.340;2023-02-28T09:24:03;62.57;;;34.60;;
54795;SDS011;40693;43.884;20.340;2023-02-28T09:26:29;59.00;;;34.17;;
54795;SDS011;40693;43.884;20.340;2023-02-28T09:28:55;62.87;;;35.87;;
54795;SDS011;40693;43.884;20.340;2023-02-28T09:31:24;57.60;;;33.40;;
54795;SDS011;40693;43.884;20.340;2023-02-28T09:33:53;60.70;;;32.50;;
54795;SDS011;40693;43.884;20.340;2023-02-28T09:36:23;61.57;;;32.23;;
54795;SDS011;40693;43.884;20.340;2023-02-28T09:41:20;55.43;;;29.33;;
54795;SDS011;40693;43.884;20.340;2023-02-28T09:43:51;62.67;;;32.17;;
54795;SDS011;40693;43.884;20.340;2023-02-28T09:49:05;56.80;;;33.50;;
54795;SDS011;40693;43.884;20.340;2023-02-28T09:56:41;69.40;;;36.83;;
54795;SDS011;40693;43.884;20.340;2023-02-28T09:59:17;62.83;;;33.40;;
54795;SDS011;40693;43.884;20.340;2023-02-28T10:05:16;58.70;;;31.07;;
54795;SDS011;40693;43.884;20.340;2023-02-28T10:10:26;61.83;;;30.03;;
54795;SDS011;40693;43.884;20.340;2023-02-28T10:12:57;67.18;;;36.05;;
54795;SDS011;40693;43.884;20.340;2023-02-28T10:15:27;67.50;;;36.10;;
54795;SDS011;40693;43.884;20.340;2023-02-28T10:18:04;46.97;;;28.50;;
54795;SDS011;40693;43.884;20.340;2023-02-28T10:20:37;65.30;;;31.88;;
54795;SDS011;40693;43.884;20.340;2023-02-28T10:23:09;68.63;;;36.10;;
54795;SDS011;40693;43.884;20.340;2023-02-28T10:25:45;55.90;;;29.97;;
54795;SDS011;40693;43.884;20.340;2023-02-28T10:28:17;59.47;;;34.23;;
54795;SDS011;40693;43.884;20.340;2023-02-28T10:30:45;65.40;;;36.20;;
54795;SDS011;40693;43.884;20.340;2023-02-28T10:33:28;64.22;;;34.63;;
54795;SDS011;40693;43.884;20.340;2023-02-28T10:35:55;71.23;;;35.50;;
54795;SDS011;40693;43.884;20.340;2023-02-28T10:38:26;72.83;;;41.20;;
54795;SDS011;40693;43.884;20.340;2023-02-28T10:41:03;107.20;;;58.27;;
54795;SDS011;40693;43.884;20.340;2023-02-28T10:43:32;106.73;;;55.13;;
54795;SDS011;40693;43.884;20.340;2023-02-28T10:46:02;70.97;;;42.27;;
54795;SDS011;40693;43.884;20.340;2023-02-28T10:51:12;60.43;;;32.50;;
54795;SDS011;40693;43.884;20.340;2023-02-28T11:04:50;70.77;;;37.47;;
54795;SDS011;40693;43.884;20.340;2023-02-28T11:10:45;70.83;;;36.73;;
54795;SDS011;40693;43.884;20.340;2023-02-28T11:12:47;60.30;;;35.07;;
54795;SDS011;40693;43.884;20.340;2023-02-28T11:20:25;69.57;;;34.57;;
54795;SDS011;40693;43.884;20.340;2023-02-28T11:23:00;70.67;;;37.00;;
54795;SDS011;40693;43.884;20.340;2023-02-28T11:25:36;58.70;;;33.27;;
54795;SDS011;40693;43.884;20.340;2023-02-28T11:28:05;64.10;;;33.30;;
54795;SDS011;40693;43.884;20.340;2023-02-28T11:30:49;64.57;;;36.33;;
54795;SDS011;40693;43.884;20.340;2023-02-28T11:33:32;59.65;;;33.13;;
54795;SDS011;40693;43.884;20.340;2023-02-28T11:36:29;71.00;;;34.47;;
54795;SDS011;40693;43.884;20.340;2023-02-28T11:38:59;65.47;;;34.70;;
54795;SDS011;40693;43.884;20.340;2023-02-28T11:47:04;55.33;;;30.50;;
54795;SDS011;40693;43.884;20.340;2023-02-28T11:52:38;58.17;;;30.30;;
54795;SDS011;40693;43.884;20.340;2023-02-28T12:28:54;54.47;;;30.53;;
54795;SDS011;40693;43.884;20.340;2023-02-28T12:31:34;61.63;;;31.37;;
54795;SDS011;40693;43.884;20.340;2023-02-28T12:34:13;51.95;;;29.15;;
54795;SDS011;40693;43.884;20.340;2023-02-28T12:36:46;68.67;;;38.13;;
54795;SDS011;40693;43.884;20.340;2023-02-28T12:39:26;66.60;;;36.10;;
54795;SDS011;40693;43.884;20.340;2023-02-28T12:42:00;54.57;;;30.03;;
54795;SDS011;40693;43.884;20.340;2023-02-28T12:44:43;49.90;;;29.40;;
54795;SDS011;40693;43.884;20.340;2023-02-28T12:47:14;58.47;;;32.87;;
54795;SDS011;40693;43.884;20.340;2023-02-28T12:52:35;52.77;;;30.33;;
54795;SDS011;40693;43.884;20.340;2023-02-28T12:55:25;60.07;;;30.50;;
54795;SDS011;40693;43.884;20.340;2023-02-28T13:00:38;50.03;;;28.80;;
54795;SDS011;40693;43.884;20.340;2023-02-28T13:06:59;54.87;;;29.63;;
54795;SDS011;40693;43.884;20.340;2023-02-28T13:17:12;49.00;;;25.37;;
54795;SDS011;40693;43.884;20.340;2023-02-28T13:19:45;45.33;;;24.80;;
54795;SDS011;40693;43.884;20.340;2023-02-28T13:24:55;41.03;;;23.27;;
54795;SDS011;40693;43.884;20.340;2023-02-28T13:27:23;46.93;;;24.20;;
54795;SDS011;40693;43.884;20.340;2023-02-28T13:30:49;51.33;;;26.77;;
54795;SDS011;40693;43.884;20.340;2023-02-28T13:36:22;43.77;;;27.07;;
54795;SDS011;40693;43.884;20.340;2023-02-28T13:44:15;51.93;;;27.33;;
54795;SDS011;40693;43.884;20.340;2023-02-28T14:00:23;46.67;;;27.87;;
54795;SDS011;40693;43.884;20.340;2023-02-28T14:08:57;41.20;;;23.30;;
54795;SDS011;40693;43.884;20.340;2023-02-28T14:11:30;40.75;;;23.67;;
54795;SDS011;40693;43.884;20.340;2023-02-28T14:13:59;46.10;;;27.50;;
54795;SDS011;40693;43.884;20.340;2023-02-28T14:16:27;57.13;;;32.93;;
54795;SDS011;40693;43.884;20.340;2023-02-28T14:19:15;55.30;;;32.67;;
54795;SDS011;40693;43.884;20.340;2023-02-28T14:21:52;46.57;;;27.53;;
54795;SDS011;40693;43.884;20.340;2023-02-28T14:26:59;43.97;;;25.43;;
54795;SDS011;40693;43.884;20.340;2023-02-28T14:37:41;43.37;;;24.63;;
54795;SDS011;40693;43.884;20.340;2023-02-28T14:40:12;36.07;;;22.03;;
54795;SDS011;40693;43.884;20.340;2023-02-28T14:42:57;34.43;;;20.47;;
54795;SDS011;40693;43.884;20.340;2023-02-28T14:45:35;61.27;;;34.03;;
54795;SDS011;40693;43.884;20.340;2023-02-28T14:48:09;44.83;;;27.17;;
54795;SDS011;40693;43.884;20.340;2023-02-28T14:50:36;49.83;;;27.07;;
54795;SDS011;40693;43.884;20.340;2023-02-28T14:53:02;38.60;;;22.40;;
54795;SDS011;40693;43.884;20.340;2023-02-28T14:55:33;48.93;;;29.93;;
54795;SDS011;40693;43.884;20.340;2023-02-28T14:58:03;39.63;;;25.57;;
54795;SDS011;40693;43.884;20.340;2023-02-28T15:00:32;30.43;;;19.07;;
54795;SDS011;40693;43.884;20.340;2023-02-28T15:03:00;37.67;;;25.13;;
54795;SDS011;40693;43.884;20.340;2023-02-28T15:05:42;44.08;;;26.48;;
54795;SDS011;40693;43.884;20.340;2023-02-28T15:08:17;50.50;;;31.13;;
54795;SDS011;40693;43.884;20.340;2023-02-28T15:13:38;56.27;;;35.60;;
54795;SDS011;40693;43.884;20.340;2023-02-28T15:16:11;66.83;;;39.50;;
54795;SDS011;40693;43.884;20.340;2023-02-28T15:18:55;58.60;;;33.10;;
54795;SDS011;40693;43.884;20.340;2023-02-28T15:21:32;44.57;;;27.90;;
54795;SDS011;40693;43.884;20.340;2023-02-28T15:26:56;57.63;;;31.93;;
54795;SDS011;40693;43.884;20.340;2023-02-28T15:29:24;50.13;;;27.13;;
54795;SDS011;40693;43.884;20.340;2023-02-28T15:32:03;52.37;;;34.30;;
54795;SDS011;40693;43.884;20.340;2023-02-28T15:34:41;34.17;;;25.00;;
54795;SDS011;40693;43.884;20.340;2023-02-28T15:37:28;44.10;;;20.70;;
54795;SDS011;40693;43.884;20.340;2023-02-28T15:40:32;43.33;;;23.93;;
54795;SDS011;40693;43.884;20.340;2023-02-28T15:45:35;44.47;;;28.67;;
54795;SDS011;40693;43.884;20.340;2023-02-28T15:48:31;57.17;;;38.00;;
54795;SDS011;40693;43.884;20.340;2023-02-28T15:53:34;49.65;;;28.80;;
54795;SDS011;40693;43.884;20.340;2023-02-28T15:56:25;51.20;;;28.93;;
54795;SDS011;40693;43.884;20.340;2023-02-28T15:58:56;67.13;;;38.40;;
54795;SDS011;40693;43.884;20.340;2023-02-28T16:03:58;50.77;;;28.83;;
54795;SDS011;40693;43.884;20.340;2023-02-28T16:06:36;49.13;;;33.17;;
54795;SDS011;40693;43.884;20.340;2023-02-28T16:09:04;53.90;;;32.53;;
54795;SDS011;40693;43.884;20.340;2023-02-28T16:11:33;44.63;;;25.20;;
54795;SDS011;40693;43.884;20.340;2023-02-28T16:14:02;46.50;;;26.70;;
54795;SDS011;40693;43.884;20.340;2023-02-28T16:16:28;39.47;;;23.97;;
54795;SDS011;40693;43.884;20.340;2023-02-28T16:18:55;35.23;;;23.27;;
54795;SDS011;40693;43.884;20.340;2023-02-28T16:21:21;38.90;;;22.27;;
54795;SDS011;40693;43.884;20.340;2023-02-28T16:23:47;50.80;;;31.30;;
54795;SDS011;40693;43.884;20.340;2023-02-28T16:26:18;34.97;;;21.90;;
54795;SDS011;40693;43.884;20.340;2023-02-28T16:28:48;36.37;;;20.60;;
54795;SDS011;40693;43.884;20.340;2023-02-28T16:31:17;34.03;;;21.17;;
54795;SDS011;40693;43.884;20.340;2023-02-28T16:33:43;36.70;;;20.07;;
54795;SDS011;40693;43.884;20.340;2023-02-28T16:36:14;35.53;;;21.50;;
54795;SDS011;40693;43.884;20.340;2023-02-28T16:38:45;50.47;;;30.10;;
54795;SDS011;40693;43.884;20.340;2023-02-28T16:41:16;47.00;;;30.40;;
54795;SDS011;40693;43.884;20.340;2023-02-28T16:43:47;64.27;;;43.50;;
54795;SDS011;40693;43.884;20.340;2023-02-28T16:46:15;58.27;;;37.00;;
54795;SDS011;40693;43.884;20.340;2023-02-28T16:48:42;52.33;;;32.13;;
54795;SDS011;40693;43.884;20.340;2023-02-28T16:51:12;148.90;;;115.50;;
54795;SDS011;40693;43.884;20.340;2023-02-28T16:53:42;64.53;;;44.47;;
54795;SDS011;40693;43.884;20.340;2023-02-28T16:56:19;64.53;;;39.40;;
54795;SDS011;40693;43.884;20.340;2023-02-28T16:58:46;57.50;;;36.43;;
54795;SDS011;40693;43.884;20.340;2023-02-28T17:01:14;66.03;;;40.40;;
54795;SDS011;40693;43.884;20.340;2023-02-28T17:03:40;57.47;;;39.53;;
54795;SDS011;40693;43.884;20.340;2023-02-28T17:06:20;56.77;;;36.17;;
54795;SDS011;40693;43.884;20.340;2023-02-28T17:08:51;61.50;;;41.00;;
54795;SDS011;40693;43.884;20.340;2023-02-28T17:11:23;64.00;;;38.80;;
54795;SDS011;40693;43.884;20.340;2023-02-28T17:18:53;46.93;;;28.10;;
54795;SDS011;40693;43.884;20.340;2023-02-28T17:21:24;63.07;;;35.67;;
54795;SDS011;40693;43.884;20.340;2023-02-28T17:23:50;51.13;;;28.90;;
54795;SDS011;40693;43.884;20.340;2023-02-28T17:26:17;41.13;;;24.13;;
54795;SDS011;40693;43.884;20.340;2023-02-28T17:28:49;42.23;;;26.00;;
54795;SDS011;40693;43.884;20.340;2023-02-28T17:31:16;50.90;;;31.67;;
54795;SDS011;40693;43.884;20.340;2023-02-28T17:33:42;43.90;;;23.53;;
54795;SDS011;40693;43.884;20.340;2023-02-28T17:36:20;39.67;;;22.03;;
54795;SDS011;40693;43.884;20.340;2023-02-28T17:38:51;59.47;;;37.20;;
54795;SDS011;40693;43.884;20.340;2023-02-28T17:41:20;51.10;;;32.13;;
54795;SDS011;40693;43.884;20.340;2023-02-28T17:43:54;48.70;;;27.60;;
54795;SDS011;40693;43.884;20.340;2023-02-28T17:46:22;55.07;;;34.60;;
54795;SDS011;40693;43.884;20.340;2023-02-28T17:48:53;50.90;;;35.37;;
54795;SDS011;40693;43.884;20.340;2023-02-28T17:51:20;50.67;;;30.00;;
54795;SDS011;40693;43.884;20.340;2023-02-28T17:53:53;46.83;;;26.77;;
54795;SDS011;40693;43.884;20.340;2023-02-28T17:56:23;45.03;;;26.53;;
54795;SDS011;40693;43.884;20.340;2023-02-28T17:58:51;51.27;;;31.47;;
54795;SDS011;40693;43.884;20.340;2023-02-28T18:01:21;37.60;;;23.90;;